createdAt,value
2018-05-11T00:02:14.412Z,18.76
2018-05-11T00:04:43.350Z,18.76
2018-05-11T00:07:11.527Z,18.80
2018-05-11T00:09:39.728Z,18.73
2018-05-11T00:12:07.905Z,18.73
2018-05-11T00:14:36.090Z,18.67
2018-05-11T00:17:04.258Z,18.61
2018-05-11T00:19:32.432Z,18.62
2018-05-11T00:22:00.605Z,18.53
2018-05-11T00:24:28.781Z,18.47
2018-05-11T00:26:56.949Z,18.48
2018-05-11T00:29:25.125Z,18.54
2018-05-11T00:31:53.627Z,18.45
2018-05-11T00:34:21.812Z,18.43
2018-05-11T00:36:50.746Z,18.35
2018-05-11T00:39:18.936Z,18.40
2018-05-11T00:41:47.110Z,18.32
2018-05-11T00:44:15.285Z,18.32
2018-05-11T00:46:43.451Z,18.27
2018-05-11T00:49:11.624Z,18.33
2018-05-11T00:51:39.793Z,18.35
2018-05-11T00:54:07.991Z,18.31
2018-05-11T00:56:36.164Z,18.28
2018-05-11T00:59:04.353Z,18.31
2018-05-11T01:01:32.516Z,18.28
2018-05-11T01:04:00.693Z,18.21
2018-05-11T01:06:28.876Z,18.22
2018-05-11T01:08:57.055Z,18.22
2018-05-11T01:11:25.262Z,18.24
2018-05-11T01:13:53.433Z,18.27
2018-05-11T01:16:22.369Z,18.33
2018-05-11T01:18:50.531Z,18.34
2018-05-11T01:21:18.713Z,18.28
2018-05-11T01:23:46.878Z,18.35
2018-05-11T01:26:15.053Z,18.40
2018-05-11T01:28:43.252Z,18.48
2018-05-11T01:31:11.418Z,18.46
2018-05-11T01:33:39.608Z,18.47
2018-05-11T01:36:07.792Z,18.45
2018-05-11T01:38:35.965Z,18.49
2018-05-11T01:41:04.131Z,18.48
2018-05-11T01:43:32.313Z,18.47
2018-05-11T01:46:00.492Z,18.47
2018-05-11T01:48:28.680Z,18.45
2018-05-11T01:50:57.618Z,18.45
2018-05-11T01:53:25.777Z,18.46
2018-05-11T01:55:54.323Z,18.53
2018-05-11T01:58:22.500Z,18.56
2018-05-11T02:00:51.441Z,18.57
2018-05-11T02:03:19.620Z,18.53
2018-05-11T02:05:47.788Z,18.52
2018-05-11T02:08:15.986Z,18.54
2018-05-11T02:10:44.157Z,18.55
2018-05-11T02:13:12.337Z,18.57
2018-05-11T02:15:40.533Z,18.56
2018-05-11T02:18:08.708Z,18.55
2018-05-11T02:20:36.889Z,18.47
2018-05-11T02:23:05.074Z,18.46
2018-05-11T02:25:34.009Z,18.45
2018-05-11T02:28:02.181Z,18.46
2018-05-11T02:30:30.352Z,18.39
2018-05-11T02:32:58.527Z,18.37
2018-05-11T02:35:26.712Z,18.34
2018-05-11T02:37:54.881Z,18.35
2018-05-11T02:40:23.058Z,18.40
2018-05-11T02:42:51.257Z,18.35
2018-05-11T02:45:19.432Z,18.29
2018-05-11T02:47:47.601Z,18.30
2018-05-11T02:50:15.770Z,18.28
2018-05-11T02:52:43.959Z,18.30
2018-05-11T02:55:12.121Z,18.28
2018-05-11T02:57:40.289Z,18.27
2018-05-11T03:00:08.468Z,18.26
2018-05-11T03:02:36.654Z,18.22
2018-05-11T03:05:04.831Z,18.21
2018-05-11T03:07:33.021Z,18.23
2018-05-11T03:10:01.190Z,18.26
2018-05-11T03:12:29.398Z,18.19
2018-05-11T03:14:57.580Z,18.19
2018-05-11T03:17:25.765Z,18.20
2018-05-11T03:19:53.965Z,18.26
2018-05-11T03:22:22.136Z,18.24
2018-05-11T03:24:50.305Z,18.22
2018-05-11T03:27:18.486Z,18.15
2018-05-11T03:29:46.683Z,18.09
2018-05-11T03:32:14.886Z,17.97
2018-05-11T03:34:43.842Z,17.96
2018-05-11T03:37:12.027Z,17.99
2018-05-11T03:39:40.206Z,18.01
2018-05-11T03:42:08.398Z,18.03
2018-05-11T03:44:37.339Z,18.09
2018-05-11T03:47:05.530Z,18.08
2018-05-11T03:49:33.706Z,17.98
2018-05-11T03:52:01.883Z,18.00
2018-05-11T03:54:30.384Z,18.03
2018-05-11T03:56:59.334Z,18.01
2018-05-11T03:59:27.535Z,18.06
2018-05-11T04:02:13.468Z,18.08
2018-05-11T04:04:59.501Z,18.08
2018-05-11T04:07:46.454Z,18.06
2018-05-11T04:10:15.396Z,18.07
2018-05-11T04:12:43.569Z,18.13
2018-05-11T04:15:11.757Z,18.12
2018-05-11T04:17:39.939Z,18.12
2018-05-11T04:20:08.121Z,18.12
2018-05-11T04:22:36.302Z,18.06
2018-05-11T04:25:04.505Z,18.06
2018-05-11T04:27:33.473Z,18.05
2018-05-11T04:30:01.656Z,18.08
2018-05-11T04:32:29.830Z,18.14
2018-05-11T04:34:58.025Z,18.16
2018-05-11T04:37:26.976Z,18.20
2018-05-11T04:39:55.161Z,18.21
2018-05-11T04:42:23.370Z,18.27
2018-05-11T04:44:52.309Z,18.27
2018-05-11T04:47:20.489Z,18.24
2018-05-11T04:49:48.698Z,18.22
2018-05-11T04:52:17.656Z,18.26
2018-05-11T04:54:45.837Z,18.28
2018-05-11T04:57:14.065Z,18.27
2018-05-11T04:59:42.993Z,18.23
2018-05-11T05:02:11.173Z,18.23
2018-05-11T05:04:39.353Z,18.23
2018-05-11T05:07:07.529Z,18.16
2018-05-11T05:09:35.738Z,18.22
2018-05-11T05:12:04.682Z,18.22
2018-05-11T05:14:32.864Z,18.18
2018-05-11T05:17:01.049Z,18.28
2018-05-11T05:19:29.249Z,18.32
2018-05-11T05:21:58.211Z,18.33
2018-05-11T05:24:26.409Z,18.22
2018-05-11T05:26:54.586Z,18.27
2018-05-11T05:29:22.760Z,18.32
2018-05-11T05:31:50.934Z,18.40
2018-05-11T05:34:19.125Z,18.38
2018-05-11T05:36:48.064Z,18.34
2018-05-11T05:39:16.332Z,18.37
2018-05-11T05:41:44.460Z,18.41
2018-05-11T05:44:13.401Z,18.43
2018-05-11T05:46:41.574Z,18.40
2018-05-11T05:49:09.758Z,18.38
2018-05-11T05:51:37.944Z,18.49
2018-05-11T05:54:06.120Z,18.53
2018-05-11T05:56:34.502Z,18.63
2018-05-11T05:59:02.673Z,18.66
2018-05-11T06:01:30.849Z,18.64
2018-05-11T06:03:59.051Z,18.64
2018-05-11T06:06:27.995Z,18.73
2018-05-11T06:08:56.983Z,18.82
2018-05-11T06:11:25.166Z,18.87
2018-05-11T06:13:53.370Z,18.98
2018-05-11T06:16:21.547Z,18.97
2018-05-11T06:18:49.729Z,19.03
2018-05-11T06:21:19.404Z,19.03
2018-05-11T06:23:47.593Z,19.09
2018-05-11T06:26:15.768Z,19.19
2018-05-11T06:28:43.947Z,19.20
2018-05-11T06:31:12.117Z,19.27
2018-05-11T06:33:40.318Z,19.36
2018-05-11T06:36:09.276Z,19.41
2018-05-11T06:38:37.462Z,19.45
2018-05-11T06:41:05.633Z,19.42
2018-05-11T06:43:33.810Z,19.44
2018-05-11T06:46:02.038Z,19.51
2018-05-11T06:48:30.965Z,19.58
2018-05-11T06:50:59.144Z,19.59
2018-05-11T06:53:27.354Z,19.63
2018-05-11T06:55:56.361Z,19.70
2018-05-11T06:58:24.522Z,19.77
2018-05-11T07:00:53.461Z,19.73
2018-05-11T07:03:21.642Z,19.71
2018-05-11T07:05:49.834Z,19.68
2018-05-11T07:08:18.009Z,19.76
2018-05-11T07:10:46.197Z,19.77
2018-05-11T07:13:14.384Z,19.91
2018-05-11T07:15:43.329Z,20.05
2018-05-11T07:18:11.509Z,20.15
2018-05-11T07:20:39.737Z,20.27
2018-05-11T07:23:08.682Z,20.56
2018-05-11T07:25:36.940Z,20.85
2018-05-11T07:28:06.568Z,21.09
2018-05-11T07:30:34.761Z,21.34
2018-05-11T07:33:03.030Z,21.64
2018-05-11T07:35:31.960Z,21.88
2018-05-11T07:38:00.903Z,22.14
2018-05-11T07:40:29.079Z,22.34
2018-05-11T07:42:57.265Z,22.59
2018-05-11T07:45:25.588Z,22.81
2018-05-11T07:47:54.541Z,22.98
2018-05-11T07:50:22.760Z,23.11
2018-05-11T07:52:50.938Z,23.05
2018-05-11T07:55:19.118Z,23.23
2018-05-11T07:57:47.285Z,23.30
2018-05-11T08:00:15.467Z,23.11
2018-05-11T08:02:43.659Z,23.39
2018-05-11T08:05:11.840Z,23.64
2018-05-11T08:07:40.017Z,23.84
2018-05-11T08:10:08.314Z,23.82
2018-05-11T08:12:36.493Z,23.82
2018-05-11T08:15:04.685Z,23.91
2018-05-11T08:17:33.646Z,23.86
2018-05-11T08:20:01.826Z,24.05
2018-05-11T08:22:30.053Z,24.14
2018-05-11T08:24:58.231Z,24.25
2018-05-11T08:27:26.397Z,24.36
2018-05-11T08:29:55.375Z,24.26
2018-05-11T08:32:24.912Z,24.13
2018-05-11T08:34:53.089Z,24.14
2018-05-11T08:37:21.281Z,23.94
2018-05-11T08:39:49.454Z,24.13
2018-05-11T08:42:17.624Z,24.24
2018-05-11T08:44:45.844Z,24.34
2018-05-11T08:47:14.804Z,24.33
2018-05-11T08:49:42.980Z,24.40
2018-05-11T08:52:11.152Z,24.46
2018-05-11T08:54:39.383Z,24.48
2018-05-11T08:57:08.332Z,24.56
2018-05-11T08:59:36.537Z,24.41
2018-05-11T09:02:04.713Z,24.44
2018-05-11T09:04:32.881Z,24.36
2018-05-11T09:07:01.073Z,24.33
2018-05-11T09:09:30.005Z,24.41
2018-05-11T09:11:58.188Z,24.14
2018-05-11T09:14:26.505Z,23.90
2018-05-11T09:16:54.697Z,23.86
2018-05-11T09:19:23.658Z,23.96
2018-05-11T09:21:51.834Z,24.05
2018-05-11T09:24:20.025Z,24.12
2018-05-11T09:26:48.975Z,24.31
2018-05-11T09:29:17.152Z,24.62
2018-05-11T09:31:45.365Z,24.94
2018-05-11T09:34:13.506Z,25.14
2018-05-11T09:36:41.677Z,25.23
2018-05-11T09:39:09.844Z,25.49
2018-05-11T09:41:38.011Z,25.50
2018-05-11T09:44:06.228Z,25.74
2018-05-11T09:46:34.397Z,25.92
2018-05-11T09:49:02.581Z,25.95
2018-05-11T09:51:30.760Z,26.24
2018-05-11T09:53:58.928Z,26.55
2018-05-11T09:56:27.105Z,26.73
2018-05-11T09:58:55.288Z,26.74
2018-05-11T10:01:24.236Z,26.36
2018-05-11T10:03:52.418Z,26.33
2018-05-11T10:06:20.597Z,26.28
2018-05-11T10:08:48.789Z,26.69
2018-05-11T10:11:16.957Z,27.00
2018-05-11T10:13:45.138Z,27.26
2018-05-11T10:16:13.311Z,27.05
2018-05-11T10:18:41.648Z,27.14
2018-05-11T10:21:09.814Z,27.01
2018-05-11T10:23:37.985Z,27.05
2018-05-11T10:26:06.163Z,26.99
2018-05-11T10:28:34.380Z,26.79
2018-05-11T10:31:02.526Z,26.58
2018-05-11T10:33:30.737Z,26.47
2018-05-11T10:35:58.921Z,27.05
2018-05-11T10:38:27.096Z,27.73
2018-05-11T10:40:55.277Z,28.46
2018-05-11T10:43:24.214Z,28.77
2018-05-11T10:45:52.405Z,28.73
2018-05-11T10:48:20.605Z,28.76
2018-05-11T10:50:48.819Z,28.95
2018-05-11T10:53:17.020Z,29.22
2018-05-11T10:55:45.191Z,30.01
2018-05-11T10:58:13.364Z,30.02
2018-05-11T11:00:41.549Z,30.22
2018-05-11T11:03:09.714Z,30.54
2018-05-11T11:05:37.888Z,30.15
2018-05-11T11:08:06.065Z,30.10
2018-05-11T11:10:34.254Z,29.70
2018-05-11T11:13:02.434Z,29.07
2018-05-11T11:15:30.603Z,28.86
2018-05-11T11:17:58.780Z,28.87
2018-05-11T11:20:26.993Z,28.52
2018-05-11T11:22:55.938Z,28.71
2018-05-11T11:25:24.192Z,28.90
2018-05-11T11:27:52.360Z,28.80
2018-05-11T11:30:20.528Z,28.64
2018-05-11T11:32:48.708Z,28.72
2018-05-11T11:35:16.899Z,28.66
2018-05-11T11:37:45.062Z,28.80
2018-05-11T11:40:13.225Z,28.27
2018-05-11T11:42:42.171Z,28.47
2018-05-11T11:45:10.343Z,28.36
2018-05-11T11:47:38.630Z,28.68
2018-05-11T11:50:06.724Z,29.60
2018-05-11T11:52:35.661Z,30.17
2018-05-11T11:55:03.832Z,30.58
2018-05-11T11:57:32.112Z,30.66
2018-05-11T12:00:00.628Z,30.95
2018-05-11T12:02:29.794Z,31.28
2018-05-11T12:04:58.125Z,32.09
2018-05-11T12:07:27.071Z,32.70
2018-05-11T12:09:55.932Z,31.36
2018-05-11T12:12:24.186Z,31.16
2018-05-11T12:14:53.835Z,30.48
2018-05-11T12:17:22.012Z,30.40
2018-05-11T12:19:50.201Z,29.86
2018-05-11T12:22:18.378Z,29.54
2018-05-11T12:24:47.438Z,29.50
2018-05-11T12:27:16.132Z,29.34
2018-05-11T12:29:44.296Z,29.28
2018-05-11T12:32:13.377Z,30.09
2018-05-11T12:34:43.380Z,31.25
2018-05-11T12:37:11.585Z,31.39
2018-05-11T12:39:39.757Z,31.55
2018-05-11T12:42:07.934Z,32.32
2018-05-11T12:44:36.117Z,33.47
2018-05-11T12:47:04.300Z,34.08
2018-05-11T12:49:32.477Z,35.18
2018-05-11T12:52:00.653Z,35.53
2018-05-11T12:54:28.837Z,35.10
2018-05-11T12:56:57.008Z,34.66
2018-05-11T12:59:25.188Z,36.69
2018-05-11T13:01:53.353Z,39.77
2018-05-11T13:04:21.519Z,41.54
2018-05-11T13:06:49.694Z,42.71
2018-05-11T13:09:17.868Z,42.99
2018-05-11T13:11:46.046Z,43.61
2018-05-11T13:14:14.299Z,44.21
2018-05-11T13:16:43.186Z,44.22
2018-05-11T13:19:11.357Z,43.77
2018-05-11T13:21:39.521Z,40.94
2018-05-11T13:24:07.697Z,37.32
2018-05-11T13:26:35.873Z,35.41
2018-05-11T13:29:04.053Z,37.34
2018-05-11T13:31:32.230Z,40.42
2018-05-11T13:34:00.409Z,41.37
2018-05-11T13:36:28.753Z,43.11
2018-05-11T13:38:56.897Z,44.26
2018-05-11T13:41:25.073Z,45.60
2018-05-11T13:43:54.013Z,45.44
2018-05-11T13:46:22.183Z,45.72
2018-05-11T13:48:50.380Z,45.90
2018-05-11T13:51:18.586Z,45.65
2018-05-11T13:53:46.757Z,46.25
2018-05-11T13:56:14.933Z,43.64
2018-05-11T13:58:43.881Z,39.75
2018-05-11T14:01:12.105Z,37.97
2018-05-11T14:03:41.052Z,35.33
2018-05-11T14:06:09.221Z,33.71
2018-05-11T14:08:37.397Z,31.98
2018-05-11T14:11:05.565Z,31.21
2018-05-11T14:13:33.743Z,30.21
2018-05-11T14:16:01.916Z,29.97
2018-05-11T14:18:30.082Z,29.43
2018-05-11T14:20:58.257Z,29.24
2018-05-11T14:23:26.498Z,28.71
2018-05-11T14:25:55.442Z,28.58
2018-05-11T14:28:23.627Z,28.31
2018-05-11T14:30:51.818Z,28.25
2018-05-11T14:33:19.986Z,28.10
2018-05-11T14:35:48.163Z,28.22
2018-05-11T14:38:16.332Z,28.37
2018-05-11T14:40:44.514Z,28.36
2018-05-11T14:43:12.684Z,28.26
2018-05-11T14:45:40.859Z,28.64
2018-05-11T14:48:09.810Z,28.29
2018-05-11T14:50:37.973Z,28.15
2018-05-11T14:53:07.172Z,28.11
2018-05-11T14:55:36.113Z,28.23
2018-05-11T14:58:04.319Z,28.29
2018-05-11T15:00:33.272Z,28.53
2018-05-11T15:03:01.453Z,28.64
2018-05-11T15:05:29.617Z,28.52
2018-05-11T15:07:57.799Z,28.10
2018-05-11T15:10:25.979Z,27.72
2018-05-11T15:12:54.142Z,27.66
2018-05-11T15:15:22.320Z,27.73
2018-05-11T15:17:50.489Z,27.67
2018-05-11T15:20:18.674Z,28.03
2018-05-11T15:22:46.839Z,28.80
2018-05-11T15:25:15.007Z,28.77
2018-05-11T15:27:43.184Z,28.68
2018-05-11T15:30:11.354Z,28.37
2018-05-11T15:32:39.527Z,28.27
2018-05-11T15:35:07.702Z,27.77
2018-05-11T15:37:35.887Z,27.69
2018-05-11T15:40:04.070Z,27.52
2018-05-11T15:42:32.251Z,27.39
2018-05-11T15:45:00.434Z,27.14
2018-05-11T15:47:28.615Z,26.95
2018-05-11T15:49:56.793Z,26.63
2018-05-11T15:52:24.963Z,26.61
2018-05-11T15:54:53.151Z,26.54
2018-05-11T15:57:22.116Z,26.43
2018-05-11T15:59:50.290Z,26.88
2018-05-11T16:02:18.458Z,27.28
2018-05-11T16:04:46.648Z,27.85
2018-05-11T16:07:14.833Z,28.58
2018-05-11T16:09:43.016Z,29.07
2018-05-11T16:12:11.952Z,29.40
2018-05-11T16:14:40.122Z,29.48
2018-05-11T16:17:08.311Z,30.02
2018-05-11T16:19:36.488Z,29.71
2018-05-11T16:22:04.661Z,30.14
2018-05-11T16:24:32.841Z,30.29
2018-05-11T16:27:01.782Z,30.10
2018-05-11T16:29:30.716Z,30.01
2018-05-11T16:31:58.887Z,29.84
2018-05-11T16:34:27.059Z,29.48
2018-05-11T16:36:55.407Z,29.11
2018-05-11T16:39:24.340Z,29.03
2018-05-11T16:41:52.523Z,28.75
2018-05-11T16:44:20.725Z,28.46
2018-05-11T16:46:48.931Z,28.21
2018-05-11T16:49:17.093Z,28.23
2018-05-11T16:51:46.067Z,28.10
2018-05-11T16:54:14.239Z,27.74
2018-05-11T16:56:42.408Z,27.71
2018-05-11T16:59:10.650Z,27.64
2018-05-11T17:01:38.836Z,27.65
2018-05-11T17:04:07.005Z,27.27
2018-05-11T17:06:35.186Z,26.97
2018-05-11T17:09:03.373Z,26.76
2018-05-11T17:11:31.546Z,26.72
2018-05-11T17:13:59.757Z,26.66
2018-05-11T17:16:28.724Z,26.67
2018-05-11T17:18:56.889Z,26.58
2018-05-11T17:21:25.054Z,26.60
2018-05-11T17:23:54.001Z,26.18
2018-05-11T17:26:22.949Z,25.87
2018-05-11T17:28:51.155Z,25.59
2018-05-11T17:31:20.102Z,25.45
2018-05-11T17:33:48.278Z,25.27
2018-05-11T17:36:16.455Z,25.07
2018-05-11T17:38:44.629Z,24.90
2018-05-11T17:41:12.804Z,24.55
2018-05-11T17:43:40.967Z,24.33
2018-05-11T17:46:09.152Z,24.28
2018-05-11T17:48:37.329Z,24.21
2018-05-11T17:51:05.542Z,24.06
2018-05-11T17:53:34.508Z,23.90
2018-05-11T17:56:02.688Z,23.81
2018-05-11T17:58:30.855Z,23.73
2018-05-11T18:00:59.020Z,23.63
2018-05-11T18:03:27.192Z,23.37
2018-05-11T18:05:55.357Z,23.20
2018-05-11T18:08:23.564Z,23.11
2018-05-11T18:10:51.753Z,23.01
2018-05-11T18:13:20.696Z,22.88
2018-05-11T18:15:48.878Z,22.81
2018-05-11T18:18:17.066Z,22.70
2018-05-11T18:20:45.260Z,22.61
2018-05-11T18:23:13.442Z,22.59
2018-05-11T18:25:41.635Z,22.57
2018-05-11T18:28:10.577Z,22.46
2018-05-11T18:30:38.761Z,22.45
2018-05-11T18:33:06.934Z,22.33
2018-05-11T18:35:35.105Z,22.23
2018-05-11T18:38:03.310Z,22.23
2018-05-11T18:40:32.257Z,22.03
2018-05-11T18:43:00.431Z,22.06
2018-05-11T18:45:28.629Z,21.87
2018-05-11T18:47:56.797Z,21.83
2018-05-11T18:50:24.977Z,21.88
2018-05-11T18:52:53.987Z,21.81
2018-05-11T18:55:22.175Z,21.78
2018-05-11T18:57:51.364Z,21.68
2018-05-11T19:00:20.334Z,21.60
2018-05-11T19:02:48.515Z,21.40
2018-05-11T19:05:16.687Z,21.37
2018-05-11T19:07:44.860Z,21.41
2018-05-11T19:10:13.037Z,21.35
2018-05-11T19:12:41.229Z,21.33
2018-05-11T19:15:09.411Z,21.18
2018-05-11T19:17:38.376Z,21.14
2018-05-11T19:20:06.545Z,21.11
2018-05-11T19:22:34.723Z,21.03
2018-05-11T19:25:02.926Z,20.91
2018-05-11T19:27:31.874Z,20.88
2018-05-11T19:30:00.045Z,20.88
2018-05-11T19:32:28.272Z,20.78
2018-05-11T19:34:57.218Z,20.76
2018-05-11T19:37:25.391Z,20.69
2018-05-11T19:39:53.566Z,20.62
2018-05-11T19:42:21.749Z,20.62
2018-05-11T19:44:49.936Z,20.52
2018-05-11T19:47:18.145Z,20.50
2018-05-11T19:49:47.100Z,20.42
2018-05-11T19:52:15.274Z,20.35
2018-05-11T19:54:43.445Z,20.27
2018-05-11T19:57:11.689Z,20.26
2018-05-11T19:59:40.606Z,20.17
2018-05-11T20:02:08.784Z,20.16
2018-05-11T20:04:37.012Z,20.13
2018-05-11T20:07:05.205Z,20.01
2018-05-11T20:09:33.375Z,20.05
2018-05-11T20:12:01.563Z,19.98
2018-05-11T20:14:29.757Z,19.89
2018-05-11T20:16:57.930Z,19.81
2018-05-11T20:19:26.141Z,19.75
2018-05-11T20:21:54.349Z,19.71
2018-05-11T20:24:22.529Z,19.66
2018-05-11T20:26:50.738Z,19.63
2018-05-11T20:29:18.953Z,19.58
2018-05-11T20:31:47.897Z,19.52
2018-05-11T20:34:16.074Z,19.55
2018-05-11T20:36:44.248Z,19.50
2018-05-11T20:39:12.424Z,19.46
2018-05-11T20:41:40.694Z,19.46
2018-05-11T20:44:09.600Z,19.37
2018-05-11T20:46:37.807Z,19.40
2018-05-11T20:49:06.759Z,19.37
2018-05-11T20:51:34.941Z,19.27
2018-05-11T20:54:03.119Z,19.26
2018-05-11T20:56:31.297Z,19.25
2018-05-11T20:58:59.485Z,19.17
2018-05-11T21:01:27.683Z,19.16
2018-05-11T21:03:56.622Z,19.13
2018-05-11T21:06:24.834Z,19.09
2018-05-11T21:08:53.013Z,19.01
2018-05-11T21:11:21.957Z,18.97
2018-05-11T21:13:50.175Z,18.95
2018-05-11T21:16:18.378Z,18.94
2018-05-11T21:18:47.324Z,18.93
2018-05-11T21:21:16.286Z,18.90
2018-05-11T21:23:44.481Z,18.87
2018-05-11T21:26:12.661Z,18.93
2018-05-11T21:28:40.842Z,18.86
2018-05-11T21:31:09.012Z,18.88
2018-05-11T21:33:37.314Z,18.80
2018-05-11T21:36:06.171Z,18.76
2018-05-11T21:38:34.361Z,18.63
2018-05-11T21:41:02.608Z,18.58
2018-05-11T21:43:31.501Z,18.48
2018-05-11T21:45:59.694Z,18.53
2018-05-11T21:48:27.896Z,18.52
2018-05-11T21:50:56.091Z,18.52
2018-05-11T21:53:24.280Z,18.45
2018-05-11T21:55:52.467Z,18.41
2018-05-11T21:58:20.641Z,18.40
2018-05-11T22:00:48.823Z,18.42
2018-05-11T22:03:17.001Z,18.36
2018-05-11T22:05:45.183Z,18.32
2018-05-11T22:08:13.356Z,18.31
2018-05-11T22:10:41.550Z,18.29
2018-05-11T22:13:09.736Z,18.30
2018-05-11T22:15:37.933Z,18.27
2018-05-11T22:18:06.877Z,18.28
2018-05-11T22:20:35.054Z,18.22
2018-05-11T22:23:03.229Z,18.18
2018-05-11T22:25:31.405Z,18.18
2018-05-11T22:27:59.596Z,18.07
2018-05-11T22:30:27.775Z,18.06
2018-05-11T22:32:55.986Z,17.99
2018-05-11T22:35:24.184Z,18.00
2018-05-11T22:37:52.375Z,17.93
2018-05-11T22:40:20.554Z,17.85
2018-05-11T22:42:48.732Z,17.84
2018-05-11T22:45:16.916Z,17.84
2018-05-11T22:47:45.108Z,17.82
2018-05-11T22:50:13.287Z,17.82
2018-05-11T22:52:42.233Z,17.83
2018-05-11T22:55:11.193Z,17.79
2018-05-11T22:57:39.366Z,17.71
2018-05-11T23:00:08.390Z,17.68
2018-05-11T23:02:36.571Z,17.64
2018-05-11T23:05:04.749Z,17.68
2018-05-11T23:07:32.921Z,17.55
2018-05-11T23:10:01.101Z,17.45
2018-05-11T23:12:29.289Z,17.34
2018-05-11T23:14:57.480Z,17.30
2018-05-11T23:17:25.655Z,17.27
2018-05-11T23:19:53.829Z,17.23
2018-05-11T23:22:22.007Z,17.23
2018-05-11T23:24:51.055Z,17.22
2018-05-11T23:27:19.162Z,17.23
2018-05-11T23:29:47.344Z,17.21
2018-05-11T23:32:15.528Z,17.14
2018-05-11T23:34:44.478Z,17.12
2018-05-11T23:37:12.657Z,17.10
2018-05-11T23:39:40.919Z,17.12
2018-05-11T23:42:09.092Z,17.10
2018-05-11T23:44:37.268Z,17.06
2018-05-11T23:47:05.444Z,17.06
2018-05-11T23:49:33.621Z,17.05
2018-05-11T23:52:01.797Z,17.05
2018-05-11T23:54:29.981Z,17.06
2018-05-11T23:56:58.153Z,17.08
2018-05-11T23:59:26.337Z,17.07
